createdAt,value
2018-04-27T00:00:49.051Z,10.17
2018-04-27T00:03:17.201Z,9.60
2018-04-27T00:05:45.581Z,8.87
2018-04-27T00:08:13.956Z,8.90
2018-04-27T00:10:42.373Z,9.33
2018-04-27T00:13:10.786Z,9.10
2018-04-27T00:15:39.168Z,9.00
2018-04-27T00:18:07.569Z,8.73
2018-04-27T00:20:35.955Z,9.57
2018-04-27T00:23:04.336Z,8.63
2018-04-27T00:25:32.759Z,9.20
2018-04-27T00:28:01.130Z,10.40
2018-04-27T00:30:29.538Z,11.30
2018-04-27T00:32:57.926Z,11.87
2018-04-27T00:35:26.301Z,11.23
2018-04-27T00:37:54.447Z,11.83
2018-04-27T00:40:22.831Z,11.60
2018-04-27T00:42:51.253Z,13.00
2018-04-27T00:45:19.641Z,11.33
2018-04-27T00:47:48.023Z,12.27
2018-04-27T00:50:16.454Z,11.87
2018-04-27T00:52:57.238Z,11.17
2018-04-27T00:55:25.736Z,11.13
2018-04-27T00:57:54.131Z,10.80
2018-04-27T01:00:22.548Z,10.73
2018-04-27T01:02:50.934Z,10.57
2018-04-27T01:05:19.313Z,10.70
2018-04-27T01:07:47.687Z,10.53
2018-04-27T01:10:16.055Z,10.97
2018-04-27T01:12:44.428Z,10.80
2018-04-27T01:15:12.834Z,10.80
2018-04-27T01:17:41.250Z,10.13
2018-04-27T01:20:09.669Z,9.77
2018-04-27T01:22:38.043Z,10.23
2018-04-27T01:25:06.193Z,10.03
2018-04-27T01:27:34.606Z,9.70
2018-04-27T01:30:03.710Z,10.93
2018-04-27T01:32:32.120Z,10.33
2018-04-27T01:35:00.542Z,10.30
2018-04-27T01:37:28.966Z,10.20
2018-04-27T01:39:57.386Z,10.37
2018-04-27T01:42:25.772Z,10.77
2018-04-27T01:44:54.188Z,10.70
2018-04-27T01:47:22.572Z,11.80
2018-04-27T01:49:51.000Z,10.77
2018-04-27T01:52:19.376Z,9.80
2018-04-27T01:54:47.794Z,10.73
2018-04-27T01:57:16.176Z,10.57
2018-04-27T01:59:44.597Z,10.33
2018-04-27T02:02:13.003Z,9.10
2018-04-27T02:04:41.376Z,9.90
2018-04-27T02:07:09.790Z,10.33
2018-04-27T02:09:38.168Z,10.93
2018-04-27T02:12:06.544Z,9.93
2018-04-27T02:14:34.984Z,11.00
2018-04-27T02:17:03.351Z,11.23
2018-04-27T02:19:31.743Z,12.00
2018-04-27T02:22:00.118Z,12.03
2018-04-27T02:24:28.492Z,12.67
2018-04-27T02:26:56.871Z,12.60
2018-04-27T02:29:25.280Z,12.00
2018-04-27T02:31:53.723Z,13.03
2018-04-27T02:34:22.114Z,12.77
2018-04-27T02:36:50.498Z,12.97
2018-04-27T02:39:18.942Z,13.13
2018-04-27T02:41:47.313Z,13.23
2018-04-27T02:44:15.688Z,12.10
2018-04-27T02:46:44.059Z,12.97
2018-04-27T02:49:12.445Z,11.77
2018-04-27T02:51:40.814Z,12.07
2018-04-27T02:54:09.182Z,12.33
2018-04-27T02:56:37.562Z,12.43
2018-04-27T02:59:05.722Z,12.33
2018-04-27T03:01:34.093Z,12.67
2018-04-27T03:04:02.466Z,12.17
2018-04-27T03:06:30.874Z,12.03
2018-04-27T03:08:59.251Z,12.90
2018-04-27T03:11:27.627Z,12.83
2018-04-27T03:13:56.009Z,13.33
2018-04-27T03:16:24.161Z,12.67
2018-04-27T03:18:52.377Z,12.43
2018-04-27T03:21:20.756Z,11.90
2018-04-27T03:23:49.176Z,12.67
2018-04-27T03:26:17.762Z,12.83
2018-04-27T03:28:46.146Z,12.07
2018-04-27T03:31:14.510Z,12.80
2018-04-27T03:33:42.897Z,12.37
2018-04-27T03:36:11.307Z,12.97
2018-04-27T03:38:39.699Z,12.63
2018-04-27T03:41:08.078Z,12.40
2018-04-27T03:43:36.458Z,12.93
2018-04-27T03:46:04.846Z,13.37
2018-04-27T03:48:33.225Z,13.53
2018-04-27T03:51:01.620Z,12.37
2018-04-27T03:53:30.200Z,13.97
2018-04-27T03:55:58.592Z,13.67
2018-04-27T03:58:27.032Z,13.67
2018-04-27T04:01:06.694Z,13.40
2018-04-27T04:03:46.377Z,11.63
2018-04-27T04:06:14.752Z,13.20
2018-04-27T04:08:43.124Z,12.80
2018-04-27T04:11:11.512Z,12.83
2018-04-27T04:13:39.925Z,12.90
2018-04-27T04:16:08.308Z,12.43
2018-04-27T04:18:36.464Z,12.47
2018-04-27T04:21:04.851Z,11.77
2018-04-27T04:23:33.236Z,12.03
2018-04-27T04:26:01.640Z,11.50
2018-04-27T04:28:30.011Z,11.73
2018-04-27T04:30:58.400Z,11.50
2018-04-27T04:33:27.263Z,11.70
2018-04-27T04:35:55.640Z,11.37
2018-04-27T04:38:24.064Z,12.07
2018-04-27T04:40:52.612Z,12.17
2018-04-27T04:43:20.990Z,10.67
2018-04-27T04:45:49.363Z,13.23
2018-04-27T04:48:17.737Z,11.13
2018-04-27T04:50:45.970Z,11.00
2018-04-27T04:53:14.545Z,10.37
2018-04-27T04:55:42.933Z,9.80
2018-04-27T04:58:11.105Z,9.63
2018-04-27T05:00:39.472Z,9.53
2018-04-27T05:03:07.855Z,8.17
2018-04-27T05:05:36.015Z,7.80
2018-04-27T05:08:04.387Z,7.70
2018-04-27T05:10:32.857Z,7.37
2018-04-27T05:13:01.359Z,7.40
2018-04-27T05:15:29.749Z,7.87
2018-04-27T05:17:58.023Z,7.53
2018-04-27T05:20:25.410Z,8.17
2018-04-27T05:22:53.796Z,7.93
2018-04-27T05:25:22.237Z,7.33
2018-04-27T05:27:50.601Z,8.00
2018-04-27T05:30:19.020Z,7.03
2018-04-27T05:32:47.399Z,7.23
2018-04-27T05:35:15.801Z,7.07
2018-04-27T05:37:44.192Z,7.37
2018-04-27T05:40:12.558Z,6.90
2018-04-27T05:42:40.941Z,6.87
2018-04-27T05:45:09.323Z,7.20
2018-04-27T05:47:37.704Z,6.40
2018-04-27T05:50:06.113Z,7.50
2018-04-27T05:52:34.531Z,7.80
2018-04-27T05:55:02.911Z,7.60
2018-04-27T05:57:31.280Z,7.37
2018-04-27T05:59:59.705Z,7.17
2018-04-27T06:02:28.078Z,7.77
2018-04-27T06:04:56.452Z,7.67
2018-04-27T06:07:24.824Z,7.13
2018-04-27T06:09:53.243Z,7.63
2018-04-27T06:12:21.609Z,7.23
2018-04-27T06:14:50.030Z,7.13
2018-04-27T06:17:18.443Z,6.63
2018-04-27T06:19:46.804Z,7.23
2018-04-27T06:22:15.265Z,6.80
2018-04-27T06:24:43.777Z,6.80
2018-04-27T06:27:12.149Z,7.73
2018-04-27T06:29:40.610Z,6.87
2018-04-27T06:32:09.043Z,7.23
2018-04-27T06:34:37.458Z,7.67
2018-04-27T06:37:05.855Z,7.10
2018-04-27T06:39:34.275Z,7.10
2018-04-27T06:42:02.651Z,8.20
2018-04-27T06:44:31.079Z,7.27
2018-04-27T06:46:59.446Z,8.10
2018-04-27T06:49:27.885Z,7.10
2018-04-27T06:51:56.290Z,6.97
2018-04-27T06:54:24.677Z,7.73
2018-04-27T06:56:53.049Z,7.00
2018-04-27T06:59:21.436Z,7.13
2018-04-27T07:01:50.018Z,11.20
2018-04-27T07:04:18.425Z,7.50
2018-04-27T07:06:46.853Z,7.50
2018-04-27T07:09:15.223Z,8.80
2018-04-27T07:11:43.160Z,7.20
2018-04-27T07:14:11.055Z,8.73
2018-04-27T07:16:39.428Z,7.87
2018-04-27T07:19:07.799Z,8.47
2018-04-27T07:21:36.179Z,7.93
2018-04-27T07:24:04.364Z,7.23
2018-04-27T07:26:32.767Z,8.47
2018-04-27T07:29:01.250Z,7.60
2018-04-27T07:31:36.011Z,8.20
2018-04-27T07:34:05.031Z,7.67
2018-04-27T07:36:33.416Z,8.60
2018-04-27T07:39:01.811Z,8.43
2018-04-27T07:41:30.263Z,9.10
2018-04-27T07:43:58.648Z,9.10
2018-04-27T07:46:27.017Z,8.50
2018-04-27T07:48:55.475Z,8.63
2018-04-27T07:51:23.847Z,9.67
2018-04-27T07:53:52.240Z,10.70
2018-04-27T07:56:20.667Z,9.40
2018-04-27T07:58:49.043Z,9.27
2018-04-27T08:01:17.234Z,8.60
2018-04-27T08:03:45.615Z,10.07
2018-04-27T08:06:14.026Z,8.80
2018-04-27T08:08:42.451Z,9.10
2018-04-27T08:11:10.868Z,8.77
2018-04-27T08:13:39.285Z,9.00
2018-04-27T08:16:07.663Z,8.87
2018-04-27T08:18:36.082Z,8.87
2018-04-27T08:21:04.523Z,9.47
2018-04-27T08:23:32.904Z,9.87
2018-04-27T08:26:01.284Z,8.77
2018-04-27T08:28:29.763Z,9.00
2018-04-27T08:30:58.284Z,9.13
2018-04-27T08:33:26.665Z,10.37
2018-04-27T08:35:55.123Z,9.57
2018-04-27T08:38:23.402Z,8.87
2018-04-27T08:40:51.819Z,9.40
2018-04-27T08:43:20.236Z,9.43
2018-04-27T08:45:48.648Z,9.70
2018-04-27T08:48:17.096Z,9.50
2018-04-27T08:50:45.251Z,9.90
2018-04-27T08:53:13.699Z,8.97
2018-04-27T08:55:42.120Z,9.40
2018-04-27T08:58:10.271Z,8.87
2018-04-27T09:00:38.688Z,8.67
2018-04-27T09:03:07.104Z,8.77
2018-04-27T09:05:35.337Z,9.13
2018-04-27T09:08:03.768Z,8.47
2018-04-27T09:10:32.232Z,9.10
2018-04-27T09:13:00.618Z,8.43
2018-04-27T09:15:29.054Z,9.27
2018-04-27T09:17:57.437Z,9.00
2018-04-27T09:20:25.920Z,9.43
2018-04-27T09:22:54.296Z,9.77
2018-04-27T09:25:22.712Z,9.40
2018-04-27T09:27:51.142Z,8.87
2018-04-27T09:30:19.576Z,8.73
2018-04-27T09:32:48.030Z,9.47
2018-04-27T09:35:16.467Z,9.23
2018-04-27T09:37:44.856Z,9.00
2018-04-27T09:40:13.361Z,9.07
2018-04-27T09:42:41.775Z,9.27
2018-04-27T09:45:10.218Z,9.07
2018-04-27T09:47:39.409Z,8.60
2018-04-27T09:50:07.826Z,8.70
2018-04-27T09:52:36.241Z,8.60
2018-04-27T09:55:04.681Z,9.30
2018-04-27T09:57:33.175Z,9.33
2018-04-27T10:00:01.496Z,9.33
2018-04-27T10:02:29.919Z,9.20
2018-04-27T10:04:58.328Z,8.93
2018-04-27T10:07:26.497Z,9.53
2018-04-27T10:09:54.967Z,9.00
2018-04-27T10:12:23.381Z,8.43
2018-04-27T10:14:51.814Z,8.57
2018-04-27T10:17:20.188Z,8.60
2018-04-27T10:19:48.644Z,8.63
2018-04-27T10:22:17.023Z,9.07
2018-04-27T10:24:46.269Z,9.53
2018-04-27T10:27:14.683Z,9.37
2018-04-27T10:29:43.074Z,9.50
2018-04-27T10:32:12.353Z,9.17
2018-04-27T10:34:41.488Z,9.33
2018-04-27T10:37:09.869Z,9.00
2018-04-27T10:39:38.075Z,10.30
2018-04-27T10:42:06.558Z,10.07
2018-04-27T10:44:34.968Z,8.63
2018-04-27T10:47:03.468Z,8.97
2018-04-27T10:49:32.020Z,9.30
2018-04-27T10:52:00.403Z,8.57
2018-04-27T10:54:28.793Z,10.70
2018-04-27T10:56:57.190Z,10.57
2018-04-27T10:59:25.598Z,10.47
2018-04-27T11:01:54.010Z,10.70
2018-04-27T11:04:22.398Z,9.17
2018-04-27T11:06:50.785Z,9.30
2018-04-27T11:09:19.168Z,8.87
2018-04-27T11:11:48.806Z,7.80
2018-04-27T11:14:16.743Z,8.20
2018-04-27T11:16:45.588Z,8.43
2018-04-27T11:19:13.363Z,8.87
2018-04-27T11:21:41.890Z,8.30
2018-04-27T11:24:10.267Z,8.53
2018-04-27T11:26:38.691Z,8.30
2018-04-27T11:29:07.078Z,7.83
2018-04-27T11:31:35.454Z,7.53
2018-04-27T11:34:03.836Z,7.60
2018-04-27T11:36:32.207Z,7.40
2018-04-27T11:39:00.359Z,7.53
2018-04-27T11:41:28.826Z,7.87
2018-04-27T11:43:57.238Z,7.80
2018-04-27T11:46:25.646Z,8.03
2018-04-27T11:48:53.799Z,8.00
2018-04-27T11:51:22.172Z,8.43
2018-04-27T11:53:50.549Z,8.47
2018-04-27T11:56:19.066Z,8.20
2018-04-27T11:58:48.488Z,8.10
2018-04-27T12:01:16.630Z,7.43
2018-04-27T12:03:45.072Z,8.20
2018-04-27T12:06:13.343Z,7.33
2018-04-27T12:08:41.715Z,9.67
2018-04-27T12:11:10.083Z,7.80
2018-04-27T12:13:38.464Z,8.03
2018-04-27T12:16:06.886Z,7.33
2018-04-27T12:18:36.142Z,6.63
2018-04-27T12:21:04.728Z,5.90
2018-04-27T12:23:33.006Z,6.63
2018-04-27T12:26:01.378Z,6.10
2018-04-27T12:28:30.416Z,6.30
2018-04-27T12:30:58.902Z,6.33
2018-04-27T12:33:27.367Z,6.77
2018-04-27T12:35:55.763Z,5.80
2018-04-27T12:38:24.238Z,6.23
2018-04-27T12:40:52.663Z,6.37
2018-04-27T12:43:21.038Z,6.40
2018-04-27T12:45:49.431Z,6.37
2018-04-27T12:48:17.798Z,6.60
2018-04-27T12:50:46.185Z,6.30
2018-04-27T12:53:14.608Z,6.47
2018-04-27T12:55:42.987Z,6.20
2018-04-27T12:58:10.949Z,6.20
2018-04-27T13:00:39.505Z,7.07
2018-04-27T13:03:07.644Z,6.03
2018-04-27T13:05:36.019Z,6.10
2018-04-27T13:08:04.269Z,6.50
2018-04-27T13:10:32.797Z,6.87
2018-04-27T13:13:01.214Z,6.97
2018-04-27T13:15:29.371Z,6.47
2018-04-27T13:17:57.758Z,7.07
2018-04-27T13:20:26.144Z,7.13
2018-04-27T13:22:54.503Z,6.77
2018-04-27T13:25:22.892Z,6.97
2018-04-27T13:27:51.318Z,6.30
2018-04-27T13:30:19.723Z,6.97
2018-04-27T13:32:48.104Z,6.77
2018-04-27T13:35:16.486Z,6.70
2018-04-27T13:37:44.631Z,6.57
2018-04-27T13:40:13.007Z,7.30
2018-04-27T13:42:41.422Z,6.50
2018-04-27T13:45:09.840Z,6.60
2018-04-27T13:47:38.210Z,6.33
2018-04-27T13:50:06.630Z,6.57
2018-04-27T13:52:34.769Z,6.70
2018-04-27T13:55:03.148Z,7.13
2018-04-27T13:57:32.021Z,7.07
2018-04-27T14:00:00.395Z,7.37
2018-04-27T14:02:28.763Z,6.80
2018-04-27T14:04:57.886Z,6.67
2018-04-27T14:07:26.313Z,7.23
2018-04-27T14:09:54.691Z,6.93
2018-04-27T14:12:23.205Z,6.93
2018-04-27T14:14:54.754Z,6.70
2018-04-27T14:17:22.918Z,7.20
2018-04-27T14:19:51.489Z,6.70
2018-04-27T14:22:19.907Z,7.13
2018-04-27T14:24:48.300Z,7.00
2018-04-27T14:27:16.449Z,6.53
2018-04-27T14:29:44.822Z,7.23
2018-04-27T14:32:13.202Z,7.17
2018-04-27T14:34:41.626Z,6.83
2018-04-27T14:37:10.002Z,7.40
2018-04-27T14:39:38.490Z,7.30
2018-04-27T14:42:06.880Z,7.80
2018-04-27T14:44:35.257Z,6.87
2018-04-27T14:47:03.680Z,6.97
2018-04-27T14:49:32.055Z,7.20
2018-04-27T14:52:00.441Z,7.20
2018-04-27T14:54:28.821Z,7.00
2018-04-27T14:56:57.234Z,7.40
2018-04-27T14:59:25.636Z,8.13
2018-04-27T15:01:54.022Z,7.43
2018-04-27T15:04:22.407Z,6.90
2018-04-27T15:06:50.822Z,7.83
2018-04-27T15:09:19.407Z,7.23
2018-04-27T15:11:47.832Z,7.10
2018-04-27T15:14:16.257Z,7.43
2018-04-27T15:16:44.690Z,7.03
2018-04-27T15:19:13.083Z,7.60
2018-04-27T15:21:41.469Z,7.50
2018-04-27T15:24:09.936Z,8.03
2018-04-27T15:26:38.446Z,8.47
2018-04-27T15:29:07.072Z,8.13
2018-04-27T15:31:35.450Z,8.17
2018-04-27T15:34:04.123Z,8.10
2018-04-27T15:36:32.522Z,7.57
2018-04-27T15:39:00.673Z,7.87
2018-04-27T15:41:29.067Z,7.73
2018-04-27T15:43:57.463Z,8.13
2018-04-27T15:46:25.830Z,7.63
2018-04-27T15:48:54.260Z,7.73
2018-04-27T15:51:22.639Z,8.47
2018-04-27T15:53:51.038Z,8.80
2018-04-27T15:56:19.450Z,8.60
2018-04-27T15:58:47.907Z,8.50
2018-04-27T16:01:17.596Z,8.60
2018-04-27T16:03:47.135Z,8.03
2018-04-27T16:06:15.343Z,8.20
2018-04-27T16:08:43.716Z,8.90
2018-04-27T16:11:12.107Z,8.60
2018-04-27T16:13:55.826Z,8.87
2018-04-27T16:16:24.528Z,8.90
2018-04-27T16:19:03.122Z,8.60
2018-04-27T16:21:33.134Z,9.00
2018-04-27T16:24:01.997Z,8.03
2018-04-27T16:26:32.730Z,9.30
2018-04-27T16:29:00.886Z,8.90
2018-04-27T16:31:29.287Z,9.53
2018-04-27T16:33:57.880Z,9.43
2018-04-27T16:36:26.275Z,8.83
2018-04-27T16:38:54.685Z,8.87
2018-04-27T16:41:23.061Z,9.50
2018-04-27T16:43:51.440Z,9.27
2018-04-27T16:46:19.338Z,9.33
2018-04-27T16:48:47.766Z,10.17
2018-04-27T16:51:16.178Z,9.37
2018-04-27T16:53:44.582Z,9.77
2018-04-27T16:56:12.979Z,9.20
2018-04-27T16:58:41.358Z,11.17
2018-04-27T17:01:09.728Z,10.33
2018-04-27T17:03:38.154Z,10.00
2018-04-27T17:06:07.273Z,10.87
2018-04-27T17:08:35.671Z,10.80
2018-04-27T17:11:04.045Z,12.20
2018-04-27T17:13:32.474Z,12.33
2018-04-27T17:16:01.038Z,12.90
2018-04-27T17:18:29.426Z,12.30
2018-04-27T17:20:57.834Z,11.33
2018-04-27T17:23:26.222Z,12.20
2018-04-27T17:25:54.613Z,11.63
2018-04-27T17:28:22.991Z,10.87
2018-04-27T17:30:51.361Z,12.60
2018-04-27T17:33:19.759Z,12.00
2018-04-27T17:35:48.147Z,10.77
2018-04-27T17:38:16.518Z,10.47
2018-04-27T17:40:44.976Z,11.60
2018-04-27T17:43:14.263Z,10.83
2018-04-27T17:45:42.706Z,9.53
2018-04-27T17:48:11.309Z,10.33
2018-04-27T17:50:39.891Z,10.77
2018-04-27T17:53:08.079Z,11.37
2018-04-27T17:55:36.551Z,12.33
2018-04-27T17:58:05.061Z,10.73
2018-04-27T18:00:33.431Z,11.17
2018-04-27T18:03:01.598Z,15.73
2018-04-27T18:05:30.994Z,11.57
2018-04-27T18:07:59.153Z,12.63
2018-04-27T18:10:27.539Z,13.03
2018-04-27T18:12:55.918Z,13.23
2018-04-27T18:15:24.312Z,12.53
2018-04-27T18:17:52.700Z,11.80
2018-04-27T18:20:20.848Z,12.87
2018-04-27T18:22:49.015Z,13.13
2018-04-27T18:25:17.607Z,12.27
2018-04-27T18:27:46.014Z,13.17
2018-04-27T18:30:14.611Z,10.77
2018-04-27T18:32:43.036Z,13.20
2018-04-27T18:35:11.587Z,11.17
2018-04-27T18:37:39.980Z,14.23
2018-04-27T18:40:08.547Z,15.80
2018-04-27T18:42:36.995Z,12.40
2018-04-27T18:45:05.527Z,13.03
2018-04-27T18:47:33.911Z,11.57
2018-04-27T18:50:02.048Z,11.70
2018-04-27T18:52:31.184Z,11.23
2018-04-27T18:54:59.581Z,12.67
2018-04-27T18:57:27.498Z,15.33
2018-04-27T18:59:55.914Z,10.93
2018-04-27T19:02:24.307Z,12.97
2018-04-27T19:04:53.266Z,11.00
2018-04-27T19:07:22.823Z,12.90
2018-04-27T19:09:51.049Z,14.27
2018-04-27T19:12:18.979Z,27.60
2018-04-27T19:14:47.879Z,32.27
2018-04-27T19:17:15.788Z,21.87
2018-04-27T19:19:43.837Z,11.23
2018-04-27T19:22:12.511Z,10.87
2018-04-27T19:24:44.407Z,10.57
2018-04-27T19:27:12.833Z,10.03
2018-04-27T19:29:40.979Z,12.40
2018-04-27T19:32:08.915Z,10.90
2018-04-27T19:34:37.306Z,11.17
2018-04-27T19:37:05.674Z,11.17
2018-04-27T19:39:34.046Z,10.77
2018-04-27T19:42:02.456Z,10.37
2018-04-27T19:44:30.895Z,10.43
2018-04-27T19:46:59.380Z,10.70
2018-04-27T19:49:31.841Z,11.07
2018-04-27T19:52:01.002Z,10.40
2018-04-27T19:54:29.410Z,9.90
2018-04-27T19:56:58.780Z,10.83
2018-04-27T19:59:27.205Z,11.17
2018-04-27T20:01:55.606Z,11.03
2018-04-27T20:04:23.779Z,10.87
2018-04-27T20:06:52.195Z,11.07
2018-04-27T20:09:20.589Z,11.37
2018-04-27T20:11:48.764Z,10.80
2018-04-27T20:14:28.493Z,10.97
2018-04-27T20:16:56.472Z,11.20
2018-04-27T20:19:24.851Z,12.23
2018-04-27T20:21:53.393Z,11.70
2018-04-27T20:24:22.062Z,11.53
2018-04-27T20:26:50.806Z,11.60
2018-04-27T20:29:19.238Z,11.23
2018-04-27T20:31:47.622Z,12.30
2018-04-27T20:34:15.812Z,11.87
2018-04-27T20:36:44.220Z,14.67
2018-04-27T20:39:12.595Z,15.17
2018-04-27T20:41:41.018Z,14.13
2018-04-27T20:44:10.198Z,12.83
2018-04-27T20:46:38.584Z,12.50
2018-04-27T20:49:06.958Z,13.47
2018-04-27T20:51:35.088Z,13.37
2018-04-27T20:54:04.748Z,14.27
2018-04-27T20:56:42.174Z,14.50
2018-04-27T20:59:10.099Z,15.10
2018-04-27T21:01:38.498Z,14.73
2018-04-27T21:04:06.206Z,14.53
2018-04-27T21:06:33.885Z,14.67
2018-04-27T21:09:02.263Z,13.70
2018-04-27T21:11:31.999Z,14.93
2018-04-27T21:13:59.905Z,13.87
2018-04-27T21:16:28.274Z,15.23
2018-04-27T21:18:56.251Z,15.40
2018-04-27T21:21:24.310Z,13.93
2018-04-27T21:23:52.711Z,14.10
2018-04-27T21:26:25.040Z,15.00
2018-04-27T21:28:54.300Z,13.87
2018-04-27T21:31:22.966Z,14.30
2018-04-27T21:33:56.648Z,14.97
2018-04-27T21:36:25.374Z,14.80
2018-04-27T21:38:56.794Z,14.87
2018-04-27T21:41:44.308Z,15.30
2018-04-27T21:44:27.095Z,15.33
2018-04-27T21:49:53.219Z,12.73
2018-04-27T21:52:26.906Z,13.83
2018-04-27T21:54:54.848Z,13.27
2018-04-27T21:57:33.259Z,13.97
2018-04-27T22:00:12.634Z,12.20
2018-04-27T22:06:09.862Z,10.23
2018-04-27T22:08:43.514Z,10.03
2018-04-27T22:14:29.564Z,15.73
2018-04-27T22:17:04.032Z,14.70
2018-04-27T22:19:32.605Z,14.40
2018-04-27T22:22:00.798Z,14.57
2018-04-27T22:24:29.419Z,14.57
2018-04-27T22:27:03.295Z,15.53
2018-04-27T22:29:31.194Z,13.93
2018-04-27T22:32:00.876Z,15.43
2018-04-27T22:34:30.474Z,14.13
2018-04-27T22:36:58.973Z,14.37
2018-04-27T22:39:32.596Z,14.50
2018-04-27T22:42:17.751Z,14.17
2018-04-27T22:44:54.435Z,13.77
2018-04-27T22:47:28.939Z,14.57
2018-04-27T22:49:56.839Z,14.00
2018-04-27T22:52:24.784Z,11.90
2018-04-27T22:54:54.352Z,11.20
2018-04-27T22:57:30.743Z,11.43
2018-04-27T22:59:59.382Z,10.10
2018-04-27T23:02:27.298Z,9.50
2018-04-27T23:05:09.792Z,10.53
2018-04-27T23:07:37.712Z,10.73
2018-04-27T23:10:07.157Z,9.70
2018-04-27T23:12:35.743Z,9.47
2018-04-27T23:15:05.623Z,9.47
2018-04-27T23:17:33.809Z,9.83
2018-04-27T23:20:21.574Z,9.60
2018-04-27T23:22:58.233Z,9.93
2018-04-27T23:25:31.140Z,9.23
2018-04-27T23:27:59.032Z,9.60
2018-04-27T23:30:26.972Z,9.57
2018-04-27T23:32:55.524Z,9.70
2018-04-27T23:35:23.918Z,9.33
2018-04-27T23:37:52.307Z,10.30
2018-04-27T23:40:20.218Z,10.03
2018-04-27T23:42:48.114Z,9.43
2018-04-27T23:45:16.018Z,11.03
2018-04-27T23:47:43.918Z,11.10
2018-04-27T23:50:15.390Z,11.73
2018-04-27T23:52:43.758Z,12.33
2018-04-27T23:55:12.122Z,12.70
2018-04-27T23:57:40.013Z,12.50
